Breton, Canada
Current Conditions -  °F | °C
As of 9:00 PM on Saturday 20 Dec 2014 (Local Time) from CYEG Reporting Station
Few Clouds Few Clouds  
Wind Chill: 11°   Ceiling: Unl
Heat Index: 23°   Visibility: 15mi
Dew Point: 18°   Wind: 14mph
Humidity: 80%   Direction: 130°SE
Pressure: 29.36"   Gusts: NA
Location:  53.12°N, 114.48°W
Report Text: CYEG 210400Z 13012KT 15SM FEW250 M05/M08 A2936 RMK CI2 SLP984
Loading
Personal Weather Stations






























Interactive Weather Map New forecast layout! Learn more

10-Day Weather Forecast

Advertisements
Track Severe Weather on mobile